Time;durP1;ratioP1;P1;durP2;ratioP2;P2;SDS_P1;SDS_P2;PMS_P1;PMS_P2;Temp;Humidity;BMP_temperature;BMP_pressure;BME280_temperature;BME280_humidity;BME280_pressure;Samples;Min_cycle;Max_cycle;Signal;HPM_P1;HPM_P2
2023/12/29 00:00:33;;;;;;;8.05;1.83;;;11.80;99.90;;;;;;5036141;28;20022;-75
2023/12/29 00:02:59;;;;;;;9.57;2.33;;;11.90;99.90;;;;;;5038625;28;20638;-76
2023/12/29 00:05:25;;;;;;;4.63;1.55;;;12.00;99.90;;;;;;5037858;28;20033;-78
2023/12/29 00:07:51;;;;;;;8.63;2.03;;;11.80;99.90;;;;;;5033793;28;21021;-76
2023/12/29 00:10:16;;;;;;;13.00;2.90;;;11.90;99.90;;;;;;5038444;28;20036;-77
2023/12/29 00:12:42;;;;;;;8.82;2.05;;;12.00;99.90;;;;;;5036605;28;20466;-76
2023/12/29 00:15:08;;;;;;;15.85;2.35;;;12.00;99.90;;;;;;5034607;28;20025;-78
2023/12/29 00:17:37;;;;;;;7.18;1.80;;;12.00;99.90;;;;;;5039232;28;20021;-76
2023/12/29 00:20:04;;;;;;;11.85;2.38;;;12.00;99.90;;;;;;5038852;28;20355;-80
2023/12/29 00:22:30;;;;;;;8.05;1.92;;;11.90;99.90;;;;;;5038675;28;20100;-75
2023/12/29 00:24:55;;;;;;;5.05;2.20;;;11.90;99.90;;;;;;5034899;28;20430;-76
2023/12/29 00:27:22;;;;;;;13.10;2.10;;;12.00;99.90;;;;;;5038516;28;20033;-75
2023/12/29 00:29:47;;;;;;;10.50;2.00;;;11.90;99.90;;;;;;5036338;28;20040;-76
2023/12/29 00:32:13;;;;;;;7.50;1.98;;;12.00;99.90;;;;;;5033229;28;20022;-75
2023/12/29 00:34:39;;;;;;;8.98;2.17;;;12.00;99.90;;;;;;5037241;28;20029;-78
2023/12/29 00:37:06;;;;;;;10.98;2.40;;;12.00;99.90;;;;;;5033800;28;20029;-76
2023/12/29 00:39:38;;;;;;;11.50;2.58;;;12.00;99.90;;;;;;5034669;28;20040;-80
2023/12/29 00:42:06;;;;;;;6.07;2.03;;;11.90;99.90;;;;;;5034979;28;20037;-79
2023/12/29 00:44:31;;;;;;;9.30;2.10;;;11.90;99.90;;;;;;5037409;28;20509;-78
2023/12/29 00:46:57;;;;;;;9.85;2.17;;;11.90;99.90;;;;;;5035211;28;20029;-79
2023/12/29 00:49:23;;;;;;;8.15;1.60;;;11.90;99.90;;;;;;5035320;28;20114;-79
2023/12/29 00:51:49;;;;;;;7.05;1.83;;;11.90;99.90;;;;;;5036443;28;20041;-77
2023/12/29 00:54:15;;;;;;;11.88;2.05;;;12.00;99.90;;;;;;5035326;28;20068;-76
2023/12/29 00:56:41;;;;;;;14.93;2.42;;;11.90;99.90;;;;;;5035803;28;20470;-77
2023/12/29 00:59:07;;;;;;;8.20;2.80;;;11.90;99.90;;;;;;5035994;28;20029;-81
2023/12/29 01:01:36;;;;;;;7.40;2.05;;;12.00;99.90;;;;;;5035332;28;20066;-83
2023/12/29 01:04:02;;;;;;;7.80;2.00;;;11.90;99.90;;;;;;5035964;28;20382;-76
2023/12/29 01:06:28;;;;;;;8.48;2.53;;;11.90;99.90;;;;;;5036508;28;20104;-76
2023/12/29 01:08:53;;;;;;;12.32;2.60;;;11.90;99.90;;;;;;5040650;28;20541;-76
2023/12/29 01:11:19;;;;;;;9.77;2.03;;;11.90;99.90;;;;;;5033653;28;20040;-76
2023/12/29 01:13:45;;;;;;;14.07;2.53;;;11.80;99.90;;;;;;5035178;28;20043;-76
2023/12/29 01:16:11;;;;;;;10.70;2.90;;;11.90;99.90;;;;;;5038551;28;20048;-76
2023/12/29 01:18:36;;;;;;;9.75;2.38;;;11.80;99.90;;;;;;5035146;28;20033;-78
2023/12/29 01:21:02;;;;;;;18.63;2.60;;;11.70;99.90;;;;;;5032618;28;20068;-76
2023/12/29 01:23:28;;;;;;;9.57;2.70;;;11.70;99.90;;;;;;5036545;28;20493;-77
2023/12/29 01:25:54;;;;;;;10.52;2.40;;;11.70;99.90;;;;;;5036898;28;20033;-77
2023/12/29 01:28:20;;;;;;;10.68;2.53;;;11.70;99.90;;;;;;5034042;28;20040;-76
2023/12/29 01:30:45;;;;;;;12.80;2.40;;;11.60;99.90;;;;;;5034001;28;20060;-78
2023/12/29 01:33:11;;;;;;;8.02;2.65;;;11.60;99.90;;;;;;5036012;28;20106;-79
2023/12/29 01:35:38;;;;;;;12.52;2.72;;;11.50;99.90;;;;;;5034963;28;20411;-78
2023/12/29 01:38:04;;;;;;;13.10;3.08;;;11.50;99.90;;;;;;5036215;28;20036;-78
2023/12/29 01:40:30;;;;;;;15.20;2.78;;;11.50;99.90;;;;;;5036811;28;20029;-78
2023/12/29 01:42:56;;;;;;;15.90;3.05;;;11.50;99.90;;;;;;5039238;28;20405;-78
2023/12/29 01:45:23;;;;;;;17.17;3.05;;;11.40;99.90;;;;;;5035628;28;20048;-78
2023/12/29 01:47:50;;;;;;;18.77;3.13;;;11.40;99.90;;;;;;5036922;28;20049;-78
2023/12/29 01:50:19;;;;;;;16.52;2.85;;;11.40;99.90;;;;;;5034238;28;20032;-77
2023/12/29 01:52:46;;;;;;;17.15;3.00;;;11.30;99.90;;;;;;5038601;28;20102;-77
2023/12/29 01:55:17;;;;;;;15.07;3.13;;;11.30;99.90;;;;;;5034550;28;20035;-76
2023/12/29 01:57:43;;;;;;;16.02;2.97;;;11.40;99.90;;;;;;5036401;28;20029;-76
2023/12/29 02:00:11;;;;;;;11.88;2.63;;;11.40;99.90;;;;;;5030663;28;20048;-78
2023/12/29 02:02:37;;;;;;;11.70;2.58;;;11.40;99.90;;;;;;5034430;28;20021;-76
2023/12/29 02:05:02;;;;;;;15.15;2.70;;;11.50;99.90;;;;;;5032838;28;20029;-76
2023/12/29 02:07:30;;;;;;;9.18;2.35;;;11.50;99.90;;;;;;5037742;28;20025;-76
2023/12/29 02:09:58;;;;;;;12.25;2.90;;;11.50;99.90;;;;;;5033873;28;20105;-77
2023/12/29 02:12:24;;;;;;;9.77;2.42;;;11.40;99.90;;;;;;5038656;28;20078;-76
2023/12/29 02:14:49;;;;;;;16.92;3.38;;;11.40;99.90;;;;;;5033423;28;20054;-76
2023/12/29 02:17:16;;;;;;;12.10;2.13;;;11.40;99.90;;;;;;5034582;28;20029;-76
2023/12/29 02:19:44;;;;;;;13.98;2.22;;;11.40;99.90;;;;;;5034891;28;20033;-79
2023/12/29 02:22:10;;;;;;;8.85;2.63;;;11.40;99.90;;;;;;5035457;28;20021;-77
2023/12/29 02:24:37;;;;;;;13.35;3.78;;;11.40;99.90;;;;;;5034029;28;20061;-78
2023/12/29 02:27:23;;;;;;;8.05;2.17;;;11.50;99.90;;;;;;5032330;28;20033;-76
2023/12/29 02:30:13;;;;;;;13.93;2.85;;;11.50;99.90;;;;;;5034598;28;20116;-76
2023/12/29 02:32:43;;;;;;;12.93;2.83;;;11.50;99.90;;;;;;5033946;28;20033;-76
2023/12/29 02:35:18;;;;;;;9.75;2.15;;;11.50;99.90;;;;;;5033578;28;20063;-76
2023/12/29 02:37:45;;;;;;;10.68;2.40;;;11.50;99.90;;;;;;5036218;28;20457;-75
2023/12/29 02:40:11;;;;;;;12.68;2.38;;;11.50;99.90;;;;;;5035394;28;20025;-75
2023/12/29 02:42:37;;;;;;;8.18;2.50;;;11.60;99.90;;;;;;5040776;28;20111;-76
2023/12/29 02:45:03;;;;;;;10.77;2.70;;;11.60;99.90;;;;;;5048823;28;20064;-76
2023/12/29 02:47:29;;;;;;;15.43;2.67;;;11.60;99.90;;;;;;5047670;28;20134;-75
2023/12/29 02:49:54;;;;;;;12.90;2.55;;;11.60;99.90;;;;;;5046400;28;20494;-75
2023/12/29 02:52:20;;;;;;;8.02;2.92;;;11.60;99.90;;;;;;5039726;28;20028;-75
2023/12/29 02:54:46;;;;;;;12.10;2.88;;;11.60;99.90;;;;;;5042212;28;20033;-78
2023/12/29 02:57:12;;;;;;;12.57;2.28;;;11.60;99.90;;;;;;5052082;28;20103;-79
2023/12/29 02:59:37;;;;;;;10.43;2.00;;;11.60;99.90;;;;;;5043293;28;20104;-78
2023/12/29 03:02:03;;;;;;;6.15;2.00;;;11.70;99.90;;;;;;5041214;28;20444;-77
2023/12/29 03:04:29;;;;;;;13.68;2.67;;;11.60;99.90;;;;;;5047171;28;20061;-76
2023/12/29 03:06:55;;;;;;;7.72;1.95;;;11.60;99.90;;;;;;5042845;28;20100;-77
2023/12/29 03:09:21;;;;;;;8.00;2.08;;;11.60;99.90;;;;;;5047447;28;20068;-76
2023/12/29 03:11:47;;;;;;;12.00;2.38;;;11.70;99.90;;;;;;5046441;28;20032;-77
2023/12/29 03:14:15;;;;;;;11.77;2.22;;;11.60;99.90;;;;;;5047738;28;20030;-76
2023/12/29 03:16:41;;;;;;;14.15;2.35;;;11.70;99.90;;;;;;5045893;28;20108;-77
2023/12/29 03:19:06;;;;;;;10.32;2.25;;;11.70;99.90;;;;;;5044771;28;20529;-77
2023/12/29 03:21:32;;;;;;;12.60;2.47;;;11.70;99.90;;;;;;5043697;28;20037;-79
2023/12/29 03:23:58;;;;;;;8.75;2.22;;;11.80;99.90;;;;;;5043329;28;20053;-76
2023/12/29 03:26:23;;;;;;;12.57;2.30;;;11.70;99.90;;;;;;5036027;28;20038;-77
2023/12/29 03:28:50;;;;;;;10.85;2.60;;;11.80;99.90;;;;;;5048603;28;20052;-78
2023/12/29 03:31:16;;;;;;;11.60;2.45;;;11.80;99.90;;;;;;5046197;28;20101;-80
2023/12/29 03:33:42;;;;;;;9.77;3.00;;;11.80;99.90;;;;;;5044378;28;20116;-76
2023/12/29 03:36:09;;;;;;;9.57;2.47;;;11.80;99.90;;;;;;5044405;28;20085;-78
2023/12/29 03:38:36;;;;;;;10.43;2.60;;;11.80;99.90;;;;;;5046653;28;20541;-77
2023/12/29 03:41:02;;;;;;;12.02;2.72;;;11.80;99.90;;;;;;5046795;28;20029;-77
2023/12/29 03:43:28;;;;;;;7.80;2.05;;;11.80;99.90;;;;;;5044445;28;20021;-77
2023/12/29 03:45:54;;;;;;;11.77;2.20;;;11.80;99.90;;;;;;5044409;28;20046;-81
2023/12/29 03:48:20;;;;;;;9.43;2.55;;;11.70;99.90;;;;;;5040655;28;20030;-79
2023/12/29 03:50:45;;;;;;;8.05;1.95;;;11.70;99.90;;;;;;5043722;28;20033;-78
2023/12/29 03:53:11;;;;;;;8.40;2.05;;;11.70;99.90;;;;;;5050357;28;20067;-76
2023/12/29 03:55:37;;;;;;;7.75;2.13;;;11.70;99.90;;;;;;5042988;28;20108;-77
2023/12/29 03:58:03;;;;;;;11.55;2.17;;;11.60;99.90;;;;;;5041258;28;20018;-80
2023/12/29 04:00:29;;;;;;;11.43;1.95;;;11.60;99.90;;;;;;5036481;28;20030;-79
2023/12/29 04:02:54;;;;;;;10.13;2.22;;;11.80;99.90;;;;;;5046987;28;20039;-77
2023/12/29 04:05:20;;;;;;;10.15;2.05;;;11.80;99.90;;;;;;5041848;28;20029;-78
2023/12/29 04:07:46;;;;;;;12.90;2.20;;;11.70;99.90;;;;;;5042808;28;20079;-77
2023/12/29 04:10:12;;;;;;;14.55;2.15;;;11.70;99.90;;;;;;5050505;28;20020;-78
2023/12/29 04:12:37;;;;;;;11.77;2.03;;;11.70;99.90;;;;;;5046538;28;20025;-80
2023/12/29 04:15:04;;;;;;;13.93;2.35;;;11.70;99.90;;;;;;5039668;28;20474;-79
2023/12/29 04:17:30;;;;;;;11.80;2.30;;;11.60;99.90;;;;;;5047221;28;20033;-76
2023/12/29 04:19:56;;;;;;;11.68;3.38;;;11.60;99.90;;;;;;5051007;28;20029;-79
2023/12/29 04:22:22;;;;;;;12.55;2.28;;;11.70;99.90;;;;;;5054361;28;20021;-77
2023/12/29 04:24:48;;;;;;;10.10;2.47;;;11.70;99.90;;;;;;5042511;28;20041;-76
2023/12/29 04:27:17;;;;;;;11.10;2.17;;;11.70;99.90;;;;;;5044407;28;20025;-76
2023/12/29 04:29:46;;;;;;;12.60;2.15;;;11.70;99.90;;;;;;5046927;28;20022;-76
2023/12/29 04:32:12;;;;;;;12.85;2.83;;;11.80;99.90;;;;;;5053156;28;20028;-77
2023/12/29 04:34:38;;;;;;;8.15;2.20;;;11.80;99.90;;;;;;5041057;28;20026;-78
2023/12/29 04:37:03;;;;;;;11.27;2.85;;;11.70;99.90;;;;;;5047883;28;20038;-79
2023/12/29 04:39:29;;;;;;;7.90;2.22;;;11.70;99.90;;;;;;5044165;28;20021;-77
2023/12/29 04:41:55;;;;;;;10.65;2.22;;;11.70;99.90;;;;;;5052624;28;20377;-77
2023/12/29 04:44:20;;;;;;;16.13;2.78;;;11.70;99.90;;;;;;5049776;28;20032;-76
2023/12/29 04:46:46;;;;;;;11.95;2.63;;;11.70;99.90;;;;;;5050019;28;20026;-78
2023/12/29 04:49:12;;;;;;;7.70;2.20;;;11.70;99.90;;;;;;5044392;28;20028;-78
2023/12/29 04:51:39;;;;;;;12.48;2.38;;;11.70;99.90;;;;;;5047046;28;20044;-76
2023/12/29 04:54:05;;;;;;;12.35;2.08;;;11.80;99.90;;;;;;5051254;28;20025;-78
2023/12/29 04:56:30;;;;;;;10.48;2.30;;;11.80;99.90;;;;;;5048651;28;20033;-79
2023/12/29 04:58:56;;;;;;;10.85;2.15;;;11.80;99.90;;;;;;5050219;28;20035;-76
2023/12/29 05:01:22;;;;;;;18.88;2.95;;;11.80;99.90;;;;;;5040979;28;20033;-76
2023/12/29 05:03:48;;;;;;;15.20;2.50;;;11.80;99.90;;;;;;5044845;28;20033;-76
2023/12/29 05:06:13;;;;;;;11.40;2.03;;;11.70;99.90;;;;;;5054520;28;20032;-78
2023/12/29 05:08:39;;;;;;;9.27;2.38;;;11.80;99.90;;;;;;5045670;28;20061;-79
2023/12/29 05:11:05;;;;;;;17.70;3.00;;;11.80;99.90;;;;;;5051523;28;20078;-77
2023/12/29 05:13:30;;;;;;;8.63;2.13;;;11.80;99.90;;;;;;5044902;28;20055;-76
2023/12/29 05:15:56;;;;;;;10.10;2.30;;;11.80;99.90;;;;;;5046689;28;20036;-76
2023/12/29 05:18:22;;;;;;;12.13;2.65;;;11.80;99.90;;;;;;5040968;28;20031;-76
2023/12/29 05:20:47;;;;;;;9.60;2.05;;;11.80;99.90;;;;;;5048185;28;20115;-75
2023/12/29 05:23:13;;;;;;;12.05;2.42;;;11.70;99.90;;;;;;5046399;28;20025;-80
2023/12/29 05:25:39;;;;;;;7.82;1.92;;;11.60;99.90;;;;;;5044625;28;20033;-77
2023/12/29 05:28:05;;;;;;;14.63;2.92;;;11.70;99.90;;;;;;5050819;28;20035;-78
2023/12/29 05:30:32;;;;;;;16.35;2.83;;;11.70;99.90;;;;;;5048954;28;20107;-77
2023/12/29 05:32:57;;;;;;;12.45;2.33;;;11.70;99.90;;;;;;5054993;28;20521;-77
2023/12/29 05:35:23;;;;;;;10.52;2.28;;;11.60;99.90;;;;;;5039906;28;20032;-80
2023/12/29 05:37:50;;;;;;;8.88;2.13;;;11.70;99.90;;;;;;5047970;28;20490;-76
2023/12/29 05:40:16;;;;;;;12.85;2.08;;;11.70;99.90;;;;;;5045602;28;20479;-77
2023/12/29 05:42:41;;;;;;;15.95;3.13;;;11.70;99.90;;;;;;5049143;28;20017;-76
2023/12/29 05:45:08;;;;;;;16.63;2.40;;;11.80;99.90;;;;;;5045626;28;20497;-81
2023/12/29 05:47:33;;;;;;;14.05;2.50;;;11.80;99.90;;;;;;5050041;28;20021;-76
2023/12/29 05:49:59;;;;;;;10.60;2.10;;;11.70;99.90;;;;;;5045726;28;20475;-79
2023/12/29 05:52:25;;;;;;;16.25;2.53;;;11.60;99.90;;;;;;5047720;28;20487;-76
2023/12/29 05:54:50;;;;;;;12.25;2.78;;;11.70;99.90;;;;;;5042082;28;20041;-76
2023/12/29 05:57:16;;;;;;;14.25;2.03;;;11.80;99.90;;;;;;5042469;28;20025;-79
2023/12/29 05:59:42;;;;;;;10.88;2.28;;;11.80;99.90;;;;;;5045180;28;20033;-77
2023/12/29 06:02:08;;;;;;;10.77;2.10;;;11.80;99.90;;;;;;5046325;28;20074;-76
2023/12/29 06:04:34;;;;;;;15.50;2.58;;;11.80;99.90;;;;;;5041996;28;20040;-76
2023/12/29 06:07:00;;;;;;;16.30;2.30;;;11.70;99.90;;;;;;5041902;28;20071;-77
2023/12/29 06:09:25;;;;;;;11.85;2.25;;;11.70;99.90;;;;;;5049210;28;20080;-76
2023/12/29 06:11:51;;;;;;;13.07;2.85;;;11.70;99.90;;;;;;5045917;28;20017;-80
2023/12/29 06:14:17;;;;;;;11.02;2.05;;;11.80;99.90;;;;;;5044960;28;20104;-77
2023/12/29 06:16:43;;;;;;;17.95;2.95;;;11.80;99.90;;;;;;5048468;28;20020;-78
2023/12/29 06:19:09;;;;;;;8.93;1.83;;;11.70;99.90;;;;;;5053093;28;20056;-77
2023/12/29 06:21:42;;;;;;;11.82;3.13;;;11.70;99.90;;;;;;5045680;28;20124;-79
2023/12/29 06:24:09;;;;;;;16.70;2.95;;;11.60;99.90;;;;;;5041112;28;20029;-82
2023/12/29 06:26:35;;;;;;;12.40;2.78;;;11.70;99.90;;;;;;5044990;28;20467;-79
2023/12/29 06:29:00;;;;;;;8.52;2.20;;;11.60;99.90;;;;;;5043058;28;20562;-80
2023/12/29 06:31:26;;;;;;;10.27;2.65;;;11.60;99.90;;;;;;5044637;28;20140;-82
2023/12/29 06:33:52;;;;;;;14.82;3.30;;;11.60;99.90;;;;;;5055133;28;20069;-83
2023/12/29 06:36:17;;;;;;;10.38;2.42;;;11.60;99.90;;;;;;5046935;28;20029;-83
2023/12/29 06:38:48;;;;;;;16.95;3.10;;;11.60;99.90;;;;;;5038969;28;20033;-78
2023/12/29 06:41:14;;;;;;;17.27;3.17;;;11.60;99.90;;;;;;5038857;28;20024;-80
2023/12/29 06:43:40;;;;;;;13.55;3.30;;;11.60;99.90;;;;;;5041029;28;20382;-78
2023/12/29 06:46:06;;;;;;;17.17;2.92;;;11.50;99.90;;;;;;5048877;28;20045;-78
2023/12/29 06:48:31;;;;;;;17.95;3.15;;;11.60;99.90;;;;;;5038244;28;20029;-79
2023/12/29 06:50:57;;;;;;;15.45;2.97;;;11.50;99.90;;;;;;5045634;28;20037;-77
2023/12/29 06:53:23;;;;;;;12.82;2.92;;;11.50;99.90;;;;;;5047042;28;20042;-77
2023/12/29 06:55:49;;;;;;;14.02;3.28;;;11.50;99.90;;;;;;5045921;28;20024;-77
2023/12/29 06:58:14;;;;;;;8.88;2.97;;;11.50;99.90;;;;;;5048743;28;20111;-80
2023/12/29 07:00:40;;;;;;;12.15;2.55;;;11.50;99.90;;;;;;5041847;28;20021;-78
2023/12/29 07:03:06;;;;;;;11.40;2.88;;;11.40;99.90;;;;;;5045759;28;20147;-78
2023/12/29 07:05:32;;;;;;;9.15;2.40;;;11.40;99.90;;;;;;5038596;28;20037;-78
2023/12/29 07:07:57;;;;;;;9.05;2.63;;;11.30;99.90;;;;;;5044267;28;20037;-80
2023/12/29 07:10:23;;;;;;;12.10;2.92;;;11.40;99.90;;;;;;5046840;28;20026;-78
2023/12/29 07:12:50;;;;;;;11.77;2.35;;;11.30;99.90;;;;;;5041581;28;20061;-79
2023/12/29 07:15:16;;;;;;;13.82;2.60;;;11.30;99.90;;;;;;5035855;28;20075;-81
2023/12/29 07:17:41;;;;;;;11.57;2.42;;;11.30;99.90;;;;;;5043368;28;20021;-78
2023/12/29 07:20:08;;;;;;;9.38;2.38;;;11.30;99.90;;;;;;5042213;28;20497;-79
2023/12/29 07:22:33;;;;;;;15.93;2.45;;;11.30;99.90;;;;;;5040306;28;20390;-78
2023/12/29 07:25:00;;;;;;;13.13;2.35;;;11.30;99.90;;;;;;5046218;28;20040;-78
2023/12/29 07:27:26;;;;;;;8.63;2.38;;;11.30;99.90;;;;;;5042910;28;20068;-78
2023/12/29 07:29:52;;;;;;;11.75;2.83;;;11.20;99.90;;;;;;5037891;28;20025;-77
2023/12/29 07:32:17;;;;;;;10.98;2.17;;;11.20;99.90;;;;;;5044618;28;20032;-79
2023/12/29 07:34:44;;;;;;;9.18;2.50;;;11.20;99.90;;;;;;5040834;28;20029;-78
2023/12/29 07:37:10;;;;;;;12.18;1.88;;;11.20;99.90;;;;;;5042823;28;20074;-78
2023/12/29 07:39:38;;;;;;;8.85;2.40;;;11.20;99.90;;;;;;5048286;28;20067;-80
2023/12/29 07:42:04;;;;;;;10.90;2.17;;;11.20;99.90;;;;;;5042035;28;20042;-80
2023/12/29 07:44:30;;;;;;;8.35;2.05;;;11.20;99.90;;;;;;5047844;28;20496;-81
2023/12/29 07:46:57;;;;;;;9.57;2.13;;;11.20;99.90;;;;;;5047052;28;20033;-78
2023/12/29 07:49:23;;;;;;;10.77;1.92;;;11.10;99.90;;;;;;5043663;28;20052;-77
2023/12/29 07:51:49;;;;;;;12.10;2.03;;;11.20;99.90;;;;;;5042544;28;20392;-83
2023/12/29 07:54:15;;;;;;;8.77;1.90;;;11.30;99.90;;;;;;5051516;28;20103;-76
2023/12/29 07:56:41;;;;;;;8.02;2.13;;;11.10;99.90;;;;;;5052922;28;20029;-76
2023/12/29 07:59:07;;;;;;;7.45;1.70;;;11.10;99.90;;;;;;5051211;28;20470;-73
2023/12/29 08:01:32;;;;;;;9.82;1.63;;;11.20;99.90;;;;;;5042504;28;20465;-76
2023/12/29 08:03:58;;;;;;;14.02;6.70;;;11.20;99.90;;;;;;5052966;28;20029;-77
2023/12/29 08:06:24;;;;;;;10.38;2.10;;;11.20;99.90;;;;;;5048047;28;20033;-76
2023/12/29 08:08:50;;;;;;;5.63;1.50;;;11.20;99.90;;;;;;5042103;28;20028;-76
2023/12/29 08:11:16;;;;;;;8.25;2.15;;;11.10;99.90;;;;;;5053409;28;20033;-78
2023/12/29 08:13:48;;;;;;;8.18;1.70;;;11.20;99.90;;;;;;5043060;28;20109;-76
2023/12/29 08:16:17;;;;;;;3.53;1.52;;;11.20;99.90;;;;;;5052024;28;20028;-77
2023/12/29 08:18:43;;;;;;;7.97;1.55;;;11.30;99.90;;;;;;5042105;28;20053;-76
2023/12/29 08:21:15;;;;;;;7.20;1.58;;;11.20;99.90;;;;;;5049482;28;20052;-78
2023/12/29 08:23:42;;;;;;;4.45;1.50;;;11.20;99.90;;;;;;5041462;28;20017;-77
2023/12/29 08:26:07;;;;;;;8.77;1.70;;;11.20;99.90;;;;;;5044948;28;20503;-79
2023/12/29 08:28:33;;;;;;;6.88;1.77;;;11.30;99.90;;;;;;5049255;28;20044;-76
2023/12/29 08:30:59;;;;;;;5.38;2.25;;;11.30;99.90;;;;;;5045493;28;20034;-74
2023/12/29 08:33:24;;;;;;;3.15;1.80;;;11.20;99.90;;;;;;5049351;28;20021;-78
2023/12/29 08:35:51;;;;;;;3.03;1.30;;;11.30;99.90;;;;;;5045717;28;20034;-73
2023/12/29 08:38:17;;;;;;;4.53;0.98;;;11.20;99.90;;;;;;5049085;28;20015;-82
2023/12/29 08:40:43;;;;;;;6.30;1.00;;;11.30;99.90;;;;;;5049973;28;20065;-73
2023/12/29 08:43:09;;;;;;;5.18;1.30;;;11.30;99.90;;;;;;5045013;28;20496;-73
2023/12/29 08:45:36;;;;;;;5.18;1.60;;;11.20;99.90;;;;;;5044496;28;20037;-72
2023/12/29 08:48:02;;;;;;;3.63;1.58;;;11.10;99.90;;;;;;5049027;28;20025;-73
2023/12/29 08:50:28;;;;;;;7.32;1.35;;;11.20;99.90;;;;;;5042628;28;20041;-74
2023/12/29 08:52:54;;;;;;;9.23;1.70;;;11.20;99.90;;;;;;5046040;28;20555;-74
2023/12/29 08:55:20;;;;;;;9.23;2.72;;;11.30;99.90;;;;;;5039966;28;20074;-74
2023/12/29 08:57:46;;;;;;;9.50;2.58;;;11.30;99.90;;;;;;5037931;28;20075;-76
2023/12/29 09:00:12;;;;;;;4.82;1.92;;;11.20;99.90;;;;;;5046877;28;20029;-74
2023/12/29 09:02:38;;;;;;;5.05;1.77;;;11.30;99.90;;;;;;5049077;28;20379;-77
2023/12/29 09:05:04;;;;;;;4.75;1.52;;;11.30;99.90;;;;;;5047582;28;20045;-76
2023/12/29 09:07:30;;;;;;;5.75;1.73;;;11.30;99.90;;;;;;5045183;28;20017;-77
2023/12/29 09:09:56;;;;;;;6.65;1.63;;;11.30;99.90;;;;;;5046363;28;20025;-75
2023/12/29 09:12:21;;;;;;;10.07;2.13;;;11.30;99.90;;;;;;5047473;28;20054;-74
2023/12/29 09:14:47;;;;;;;10.65;2.08;;;11.30;99.90;;;;;;5036491;28;20548;-74
2023/12/29 09:17:13;;;;;;;6.90;1.70;;;11.30;99.90;;;;;;5044157;28;20044;-74
2023/12/29 09:19:39;;;;;;;7.93;1.88;;;11.20;99.90;;;;;;5048023;28;20502;-74
2023/12/29 09:22:04;;;;;;;3.92;1.20;;;11.20;99.90;;;;;;5040260;28;20048;-75
2023/12/29 09:24:30;;;;;;;6.55;1.92;;;11.20;99.90;;;;;;5041257;28;20120;-74
2023/12/29 09:26:56;;;;;;;6.13;1.88;;;11.20;99.90;;;;;;5042585;28;20034;-74
2023/12/29 09:29:22;;;;;;;8.32;1.60;;;11.20;99.90;;;;;;5041331;28;20037;-75
2023/12/29 09:31:47;;;;;;;8.48;1.98;;;11.20;99.90;;;;;;5036546;28;20543;-74
2023/12/29 09:34:13;;;;;;;5.93;1.90;;;11.30;99.90;;;;;;5043956;28;20067;-73
2023/12/29 09:36:39;;;;;;;4.43;1.58;;;11.20;99.90;;;;;;5043043;28;20025;-76
2023/12/29 09:39:04;;;;;;;4.10;1.52;;;11.30;99.90;;;;;;5047853;28;20030;-75
2023/12/29 09:41:33;;;;;;;6.53;1.40;;;11.30;99.90;;;;;;5043666;28;20044;-74
2023/12/29 09:44:01;;;;;;;3.45;1.10;;;11.30;99.90;;;;;;5050276;28;20111;-73
2023/12/29 09:46:31;;;;;;;3.33;1.23;;;11.20;99.90;;;;;;5047659;28;20048;-73
2023/12/29 09:49:02;;;;;;;5.07;1.75;;;11.30;99.90;;;;;;5050444;28;20017;-73
2023/12/29 09:51:29;;;;;;;3.47;1.17;;;11.30;99.90;;;;;;5050284;28;20037;-73
2023/12/29 09:53:58;;;;;;;3.22;1.27;;;11.30;99.90;;;;;;5045325;28;20030;-73
2023/12/29 09:56:24;;;;;;;2.92;1.25;;;11.40;99.90;;;;;;5017604;28;20021;-74
2023/12/29 09:58:52;;;;;;;4.45;1.17;;;11.40;99.90;;;;;;5029831;28;20024;-73
2023/12/29 10:01:21;;;;;;;6.03;1.58;;;11.40;99.90;;;;;;5029103;28;20064;-75
2023/12/29 10:04:03;;;;;;;3.75;1.27;;;11.40;99.90;;;;;;5034687;28;20491;-82
2023/12/29 10:06:34;;;;;;;4.20;1.60;;;11.40;99.90;;;;;;5048696;28;20045;-73
2023/12/29 10:09:04;;;;;;;4.65;1.48;;;11.40;99.90;;;;;;5034588;28;20029;-77
2023/12/29 10:11:37;;;;;;;5.30;1.50;;;11.40;99.90;;;;;;5035234;28;20036;-80
2023/12/29 10:14:15;;;;;;;5.75;1.35;;;11.50;99.90;;;;;;5029421;28;20025;-77
2023/12/29 10:16:45;;;;;;;5.40;1.52;;;11.60;99.90;;;;;;5028907;28;20026;-76
2023/12/29 10:19:30;;;;;;;7.95;1.92;;;11.60;99.90;;;;;;5034143;28;20414;-79
2023/12/29 10:22:26;;;;;;;6.32;1.50;;;11.50;99.90;;;;;;5031976;28;20567;-77
2023/12/29 10:24:53;;;;;;;6.07;1.33;;;11.50;99.90;;;;;;5034818;28;20041;-75
2023/12/29 10:27:19;;;;;;;5.00;1.58;;;11.60;99.90;;;;;;5033267;28;20391;-74
2023/12/29 10:29:45;;;;;;;5.80;1.75;;;11.60;99.90;;;;;;5035939;28;20119;-76
2023/12/29 10:32:11;;;;;;;5.15;1.20;;;11.60;99.90;;;;;;5031976;28;20112;-75
2023/12/29 10:34:37;;;;;;;6.82;1.30;;;11.70;99.90;;;;;;5032142;28;20043;-75
2023/12/29 10:37:06;;;;;;;4.40;1.40;;;11.60;99.90;;;;;;5033705;28;20027;-76
2023/12/29 10:39:32;;;;;;;8.15;2.30;;;11.60;99.90;;;;;;5039556;28;20027;-78
2023/12/29 10:42:06;;;;;;;9.15;1.33;;;11.60;99.90;;;;;;5035125;28;20374;-75
2023/12/29 10:44:33;;;;;;;3.83;1.90;;;11.50;99.90;;;;;;5035460;28;20036;-74
2023/12/29 10:46:58;;;;;;;6.25;1.85;;;11.70;99.90;;;;;;5033044;28;20032;-75
2023/12/29 10:49:24;;;;;;;8.50;1.75;;;11.70;99.90;;;;;;5035453;28;20029;-75
2023/12/29 10:51:50;;;;;;;6.65;1.70;;;11.80;99.90;;;;;;5034619;28;20370;-75
2023/12/29 10:54:23;;;;;;;6.78;1.67;;;11.80;99.90;;;;;;5033746;28;20841;-75
2023/12/29 10:57:12;;;;;;;5.88;1.92;;;11.90;99.90;;;;;;5036157;28;20079;-75
2023/12/29 10:59:38;;;;;;;5.65;1.70;;;11.90;99.90;;;;;;5033576;28;20017;-76
2023/12/29 11:02:04;;;;;;;7.13;1.63;;;12.00;99.90;;;;;;5034429;28;20033;-75
2023/12/29 11:04:30;;;;;;;4.30;1.38;;;12.00;99.90;;;;;;5038045;28;20474;-76
2023/12/29 11:06:56;;;;;;;5.85;1.20;;;11.90;99.90;;;;;;5031198;28;20116;-75
2023/12/29 11:09:33;;;;;;;11.77;1.55;;;11.90;99.90;;;;;;5031879;28;20029;-74
2023/12/29 11:12:03;;;;;;;2.35;1.25;;;12.00;99.90;;;;;;5034622;28;20120;-76
2023/12/29 11:14:30;;;;;;;5.10;1.30;;;11.90;99.90;;;;;;5034028;28;20213;-76
2023/12/29 11:16:58;;;;;;;4.82;1.30;;;11.90;99.90;;;;;;5034369;28;20036;-75
2023/12/29 11:19:24;;;;;;;4.55;1.38;;;12.00;99.90;;;;;;5033637;28;20402;-76
2023/12/29 11:21:54;;;;;;;6.35;0.93;;;12.00;99.90;;;;;;5038854;28;20037;-78
2023/12/29 11:24:20;;;;;;;3.78;1.20;;;11.90;99.90;;;;;;5039493;28;20030;-75
2023/12/29 11:26:46;;;;;;;2.33;1.00;;;11.90;99.90;;;;;;5039766;28;20134;-76
2023/12/29 11:29:12;;;;;;;4.75;0.98;;;11.90;99.90;;;;;;5039428;28;20510;-76
2023/12/29 11:31:39;;;;;;;2.55;1.10;;;11.90;99.90;;;;;;5039462;28;20486;-76
2023/12/29 11:34:14;;;;;;;2.88;1.00;;;12.00;99.90;;;;;;5040087;28;20478;-76
2023/12/29 11:36:45;;;;;;;1.98;1.27;;;11.90;99.90;;;;;;5040858;28;20028;-76
2023/12/29 11:39:38;;;;;;;5.70;1.85;;;11.90;99.90;;;;;;5036391;28;20028;-76
2023/12/29 11:42:19;;;;;;;3.00;1.50;;;12.00;99.90;;;;;;5034642;28;20025;-75
2023/12/29 11:44:45;;;;;;;4.28;2.25;;;11.90;99.90;;;;;;5042093;28;20370;-75
2023/12/29 11:47:37;;;;;;;3.47;1.35;;;11.90;99.90;;;;;;5037828;28;20040;-75
2023/12/29 11:50:03;;;;;;;5.28;1.55;;;11.90;99.90;;;;;;5034329;28;20030;-75
2023/12/29 11:52:36;;;;;;;9.40;2.03;;;11.90;99.90;;;;;;5042432;28;20032;-75
2023/12/29 11:55:12;;;;;;;4.88;1.50;;;12.00;99.90;;;;;;5039870;28;20045;-75
2023/12/29 11:57:42;;;;;;;7.57;2.03;;;12.00;99.90;;;;;;5037237;28;20025;-75
2023/12/29 12:00:08;;;;;;;9.90;2.22;;;12.00;99.90;;;;;;5034794;28;20035;-75
2023/12/29 12:02:35;;;;;;;6.20;2.17;;;12.00;99.90;;;;;;5036232;28;20502;-75
2023/12/29 12:05:01;;;;;;;15.52;3.45;;;12.00;99.90;;;;;;5040328;28;20029;-75
2023/12/29 12:07:27;;;;;;;9.43;2.83;;;12.00;99.90;;;;;;5037993;28;20032;-75
2023/12/29 12:10:32;;;;;;;12.82;2.60;;;12.00;99.90;;;;;;5040444;28;20107;-75
2023/12/29 12:12:59;;;;;;;10.32;2.25;;;12.00;99.90;;;;;;5037632;28;20017;-76
2023/12/29 12:15:28;;;;;;;13.70;3.35;;;12.00;99.90;;;;;;5034145;28;20360;-75
2023/12/29 12:17:58;;;;;;;12.50;3.53;;;12.00;99.90;;;;;;5034985;28;20386;-76
2023/12/29 12:20:28;;;;;;;8.15;2.90;;;12.00;99.90;;;;;;5036594;28;20025;-75
2023/12/29 12:23:17;;;;;;;7.68;3.13;;;12.00;99.90;;;;;;5036909;28;20562;-75
2023/12/29 12:25:45;;;;;;;13.05;3.05;;;12.00;99.90;;;;;;5040640;28;20076;-76
2023/12/29 12:28:17;;;;;;;9.95;3.55;;;12.00;99.90;;;;;;5041399;28;20500;-76
2023/12/29 12:30:43;;;;;;;6.88;3.72;;;12.00;99.90;;;;;;5037560;28;20112;-75
2023/12/29 12:33:11;;;;;;;8.73;3.42;;;12.00;99.90;;;;;;5035540;28;20021;-75
2023/12/29 12:35:40;;;;;;;7.13;2.25;;;12.20;99.90;;;;;;5039909;28;20025;-75
2023/12/29 12:38:24;;;;;;;9.95;2.55;;;12.20;99.90;;;;;;5033387;28;20029;-75
2023/12/29 12:40:50;;;;;;;8.07;2.80;;;12.30;99.90;;;;;;5033968;28;20021;-75
2023/12/29 12:43:17;;;;;;;8.68;3.60;;;12.20;99.90;;;;;;5035532;28;20419;-75